sensor_id;sensor_type;location;lat;lon;timestamp;pressure;altitude;pressure_sealevel;temperature;humidity
62548;BME280;48602;45.192;5.722;2023-07-22T00:01:57;99108.69;;;23.23;49.80
62548;BME280;48602;45.192;5.722;2023-07-22T00:04:22;99113.22;;;23.23;49.99
62548;BME280;48602;45.192;5.722;2023-07-22T00:06:48;99106.84;;;23.24;50.09
62548;BME280;48602;45.192;5.722;2023-07-22T00:09:13;99102.31;;;23.24;49.77
62548;BME280;48602;45.192;5.722;2023-07-22T00:11:39;99106.97;;;23.22;49.54
62548;BME280;48602;45.192;5.722;2023-07-22T00:14:04;99106.13;;;23.22;49.35
62548;BME280;48602;45.192;5.722;2023-07-22T00:16:31;99103.72;;;23.19;49.73
62548;BME280;48602;45.192;5.722;2023-07-22T00:18:57;99103.84;;;23.17;49.13
62548;BME280;48602;45.192;5.722;2023-07-22T00:21:22;99102.03;;;23.18;49.39
62548;BME280;48602;45.192;5.722;2023-07-22T00:23:47;99097.63;;;23.17;49.02
62548;BME280;48602;45.192;5.722;2023-07-22T00:26:13;99085.16;;;23.16;48.90
62548;BME280;48602;45.192;5.722;2023-07-22T00:28:39;99098.75;;;23.14;48.93
62548;BME280;48602;45.192;5.722;2023-07-22T00:31:04;99083.59;;;23.13;49.34
62548;BME280;48602;45.192;5.722;2023-07-22T00:33:29;99088.31;;;23.11;49.43
62548;BME280;48602;45.192;5.722;2023-07-22T00:35:56;99082.34;;;23.08;49.13
62548;BME280;48602;45.192;5.722;2023-07-22T00:38:21;99092.97;;;23.09;48.96
62548;BME280;48602;45.192;5.722;2023-07-22T00:40:46;99088.31;;;23.11;48.99
62548;BME280;48602;45.192;5.722;2023-07-22T00:43:12;99084.06;;;23.09;49.50
62548;BME280;48602;45.192;5.722;2023-07-22T00:45:38;99099.47;;;23.07;49.01
62548;BME280;48602;45.192;5.722;2023-07-22T00:48:05;99080.66;;;23.07;49.02
62548;BME280;48602;45.192;5.722;2023-07-22T00:50:31;99082.50;;;23.06;49.24
62548;BME280;48602;45.192;5.722;2023-07-22T00:52:57;99080.94;;;23.04;49.08
62548;BME280;48602;45.192;5.722;2023-07-22T00:55:22;99079.22;;;23.03;49.15
62548;BME280;48602;45.192;5.722;2023-07-22T00:57:48;99085.72;;;23.00;49.25
62548;BME280;48602;45.192;5.722;2023-07-22T01:00:14;99080.50;;;22.98;49.08
62548;BME280;48602;45.192;5.722;2023-07-22T01:02:41;99096.75;;;22.97;49.38
62548;BME280;48602;45.192;5.722;2023-07-22T01:05:09;99088.69;;;22.97;48.90
62548;BME280;48602;45.192;5.722;2023-07-22T01:07:35;99091.56;;;22.95;48.80
62548;BME280;48602;45.192;5.722;2023-07-22T01:10:01;99082.78;;;22.93;48.94
62548;BME280;48602;45.192;5.722;2023-07-22T01:12:27;99083.06;;;22.90;49.37
62548;BME280;48602;45.192;5.722;2023-07-22T01:14:52;99087.72;;;22.88;49.35
62548;BME280;48602;45.192;5.722;2023-07-22T01:17:18;99084.31;;;22.86;48.68
62548;BME280;48602;45.192;5.722;2023-07-22T01:19:44;99070.16;;;22.84;49.28
62548;BME280;48602;45.192;5.722;2023-07-22T01:22:10;99070.44;;;22.81;49.15
62548;BME280;48602;45.192;5.722;2023-07-22T01:24:36;99067.88;;;22.80;48.89
62548;BME280;48602;45.192;5.722;2023-07-22T01:27:03;99069.16;;;22.76;49.28
62548;BME280;48602;45.192;5.722;2023-07-22T01:29:29;99078.34;;;22.73;49.67
62548;BME280;48602;45.192;5.722;2023-07-22T01:31:55;99075.91;;;22.70;49.46
62548;BME280;48602;45.192;5.722;2023-07-22T01:34:22;99066.28;;;22.68;49.39
62548;BME280;48602;45.192;5.722;2023-07-22T01:36:48;99063.88;;;22.64;49.47
62548;BME280;48602;45.192;5.722;2023-07-22T01:39:14;99072.06;;;22.63;49.57
62548;BME280;48602;45.192;5.722;2023-07-22T01:41:40;99065.03;;;22.62;49.70
62548;BME280;48602;45.192;5.722;2023-07-22T01:44:06;99068.13;;;22.57;49.41
62548;BME280;48602;45.192;5.722;2023-07-22T01:46:32;99078.28;;;22.54;50.09
62548;BME280;48602;45.192;5.722;2023-07-22T01:48:58;99071.47;;;22.50;50.00
62548;BME280;48602;45.192;5.722;2023-07-22T01:51:23;99073.75;;;22.45;50.07
62548;BME280;48602;45.192;5.722;2023-07-22T01:53:49;99075.72;;;22.43;50.21
62548;BME280;48602;45.192;5.722;2023-07-22T01:56:15;99070.63;;;22.40;50.23
62548;BME280;48602;45.192;5.722;2023-07-22T01:58:41;99079.81;;;22.37;50.58
62548;BME280;48602;45.192;5.722;2023-07-22T02:01:07;99077.38;;;22.34;50.00
62548;BME280;48602;45.192;5.722;2023-07-22T02:03:33;99083.03;;;22.31;50.26
62548;BME280;48602;45.192;5.722;2023-07-22T02:06:04;99078.94;;;22.27;50.22
62548;BME280;48602;45.192;5.722;2023-07-22T02:08:30;99080.06;;;22.24;50.57
62548;BME280;48602;45.192;5.722;2023-07-22T02:11:01;99079.47;;;22.21;50.08
62548;BME280;48602;45.192;5.722;2023-07-22T02:13:26;99077.75;;;22.20;50.58
62548;BME280;48602;45.192;5.722;2023-07-22T02:15:53;99084.97;;;22.19;50.35
62548;BME280;48602;45.192;5.722;2023-07-22T02:18:19;99084.38;;;22.16;50.56
62548;BME280;48602;45.192;5.722;2023-07-22T02:20:44;99081.69;;;22.16;50.30
62548;BME280;48602;45.192;5.722;2023-07-22T02:23:10;99076.47;;;22.14;50.81
62548;BME280;48602;45.192;5.722;2023-07-22T02:25:35;99083.53;;;22.15;50.84
62548;BME280;48602;45.192;5.722;2023-07-22T02:28:01;99076.88;;;22.10;50.79
62548;BME280;48602;45.192;5.722;2023-07-22T02:30:26;99081.28;;;22.11;50.53
62548;BME280;48602;45.192;5.722;2023-07-22T02:32:52;99089.47;;;22.09;50.37
62548;BME280;48602;45.192;5.722;2023-07-22T02:35:17;99086.19;;;22.06;50.68
62548;BME280;48602;45.192;5.722;2023-07-22T02:37:42;99073.88;;;22.03;50.52
62548;BME280;48602;45.192;5.722;2023-07-22T02:40:08;99087.44;;;22.02;50.61
62548;BME280;48602;45.192;5.722;2023-07-22T02:42:36;99078.66;;;22.00;50.20
62548;BME280;48602;45.192;5.722;2023-07-22T02:45:02;99085.97;;;21.98;50.59
62548;BME280;48602;45.192;5.722;2023-07-22T02:47:29;99087.94;;;21.95;50.68
62548;BME280;48602;45.192;5.722;2023-07-22T02:49:54;99087.25;;;21.93;50.10
62548;BME280;48602;45.192;5.722;2023-07-22T02:52:20;99105.31;;;21.91;50.21
62548;BME280;48602;45.192;5.722;2023-07-22T02:55:04;99103.75;;;21.89;50.17
62548;BME280;48602;45.192;5.722;2023-07-22T02:57:30;99103.16;;;21.85;50.63
62548;BME280;48602;45.192;5.722;2023-07-22T02:59:56;99107.78;;;21.83;50.11
62548;BME280;48602;45.192;5.722;2023-07-22T03:02:22;99102.56;;;21.82;50.27
62548;BME280;48602;45.192;5.722;2023-07-22T03:04:47;99106.50;;;21.78;50.32
62548;BME280;48602;45.192;5.722;2023-07-22T03:07:12;99111.88;;;21.78;50.36
62548;BME280;48602;45.192;5.722;2023-07-22T03:09:38;99118.50;;;21.74;51.01
62548;BME280;48602;45.192;5.722;2023-07-22T03:12:03;99114.34;;;21.70;50.57
62548;BME280;48602;45.192;5.722;2023-07-22T03:14:29;99115.47;;;21.67;50.54
62548;BME280;48602;45.192;5.722;2023-07-22T03:16:54;99124.50;;;21.66;50.68
62548;BME280;48602;45.192;5.722;2023-07-22T03:19:19;99133.28;;;21.68;51.06
62548;BME280;48602;45.192;5.722;2023-07-22T03:21:45;99134.97;;;21.69;51.79
62548;BME280;48602;45.192;5.722;2023-07-22T03:24:10;99141.91;;;21.72;51.98
62548;BME280;48602;45.192;5.722;2023-07-22T03:26:35;99142.03;;;21.70;52.45
62548;BME280;48602;45.192;5.722;2023-07-22T03:29:01;99150.34;;;21.67;52.46
62548;BME280;48602;45.192;5.722;2023-07-22T03:31:26;99161.47;;;21.63;52.76
62548;BME280;48602;45.192;5.722;2023-07-22T03:33:52;99157.75;;;21.54;52.60
62548;BME280;48602;45.192;5.722;2023-07-22T03:36:17;99164.22;;;21.51;53.73
62548;BME280;48602;45.192;5.722;2023-07-22T03:38:43;99171.94;;;21.45;53.39
62548;BME280;48602;45.192;5.722;2023-07-22T03:41:08;99177.09;;;21.37;54.09
62548;BME280;48602;45.192;5.722;2023-07-22T03:43:33;99168.69;;;21.30;53.35
62548;BME280;48602;45.192;5.722;2023-07-22T03:45:59;99178.00;;;21.26;53.50
62548;BME280;48602;45.192;5.722;2023-07-22T03:48:24;99179.44;;;21.19;54.08
62548;BME280;48602;45.192;5.722;2023-07-22T03:50:50;99181.06;;;21.10;54.35
62548;BME280;48602;45.192;5.722;2023-07-22T03:53:16;99184.00;;;21.07;53.88
62548;BME280;48602;45.192;5.722;2023-07-22T03:55:41;99181.31;;;21.07;54.39
62548;BME280;48602;45.192;5.722;2023-07-22T03:58:06;99187.78;;;21.05;54.47
62548;BME280;48602;45.192;5.722;2023-07-22T04:00:32;99189.72;;;21.03;54.21
62548;BME280;48602;45.192;5.722;2023-07-22T04:02:57;99195.09;;;21.03;54.75
62548;BME280;48602;45.192;5.722;2023-07-22T04:05:23;99195.09;;;21.03;54.60
62548;BME280;48602;45.192;5.722;2023-07-22T04:07:48;99198.13;;;20.98;54.33
62548;BME280;48602;45.192;5.722;2023-07-22T04:10:13;99197.56;;;20.95;54.82
62548;BME280;48602;45.192;5.722;2023-07-22T04:12:39;99203.28;;;20.90;55.10
62548;BME280;48602;45.192;5.722;2023-07-22T04:15:04;99209.00;;;20.85;54.76
62548;BME280;48602;45.192;5.722;2023-07-22T04:17:30;99210.34;;;20.80;54.73
62548;BME280;48602;45.192;5.722;2023-07-22T04:19:56;99213.28;;;20.77;55.14
62548;BME280;48602;45.192;5.722;2023-07-22T04:22:21;99207.19;;;20.75;54.55
62548;BME280;48602;45.192;5.722;2023-07-22T04:24:47;99204.41;;;20.76;54.61
62548;BME280;48602;45.192;5.722;2023-07-22T04:27:14;99204.13;;;20.79;54.84
62548;BME280;48602;45.192;5.722;2023-07-22T04:29:40;99214.47;;;20.84;54.05
62548;BME280;48602;45.192;5.722;2023-07-22T04:32:07;99216.81;;;20.88;54.17
62548;BME280;48602;45.192;5.722;2023-07-22T04:34:33;99219.97;;;20.94;54.07
62548;BME280;48602;45.192;5.722;2023-07-22T04:36:59;99209.63;;;20.89;53.62
62548;BME280;48602;45.192;5.722;2023-07-22T04:39:25;99217.41;;;20.92;53.59
62548;BME280;48602;45.192;5.722;2023-07-22T04:41:50;99216.69;;;20.90;53.44
62548;BME280;48602;45.192;5.722;2023-07-22T04:44:17;99220.47;;;20.87;53.29
62548;BME280;48602;45.192;5.722;2023-07-22T04:46:42;99222.66;;;20.82;53.14
62548;BME280;48602;45.192;5.722;2023-07-22T04:49:08;99212.91;;;20.81;53.27
62548;BME280;48602;45.192;5.722;2023-07-22T04:51:33;99214.59;;;20.82;53.32
62548;BME280;48602;45.192;5.722;2023-07-22T04:53:59;99218.88;;;20.85;54.04
62548;BME280;48602;45.192;5.722;2023-07-22T04:56:24;99219.34;;;20.90;53.79
62548;BME280;48602;45.192;5.722;2023-07-22T04:58:49;99220.22;;;20.90;54.18
62548;BME280;48602;45.192;5.722;2023-07-22T05:01:15;99219.34;;;20.90;53.90
62548;BME280;48602;45.192;5.722;2023-07-22T05:03:41;99221.06;;;20.91;54.24
62548;BME280;48602;45.192;5.722;2023-07-22T05:06:06;99225.34;;;20.94;54.03
62548;BME280;48602;45.192;5.722;2023-07-22T05:08:33;99219.00;;;20.95;54.05
62548;BME280;48602;45.192;5.722;2023-07-22T05:10:59;99218.84;;;20.96;54.25
62548;BME280;48602;45.192;5.722;2023-07-22T05:13:24;99228.47;;;20.99;54.00
62548;BME280;48602;45.192;5.722;2023-07-22T05:15:49;99230.91;;;21.02;54.19
62548;BME280;48602;45.192;5.722;2023-07-22T05:18:15;99233.34;;;21.05;53.77
62548;BME280;48602;45.192;5.722;2023-07-22T05:20:40;99233.22;;;21.06;53.88
62548;BME280;48602;45.192;5.722;2023-07-22T05:23:05;99239.19;;;21.10;53.44
62548;BME280;48602;45.192;5.722;2023-07-22T05:25:31;99235.38;;;21.12;53.55
62548;BME280;48602;45.192;5.722;2023-07-22T05:27:56;99235.25;;;21.14;53.83
62548;BME280;48602;45.192;5.722;2023-07-22T05:30:21;99240.63;;;21.14;53.40
62548;BME280;48602;45.192;5.722;2023-07-22T05:32:47;99230.88;;;21.13;53.85
62548;BME280;48602;45.192;5.722;2023-07-22T05:35:12;99227.09;;;21.15;53.79
62548;BME280;48602;45.192;5.722;2023-07-22T05:37:38;99226.13;;;21.16;53.60
62548;BME280;48602;45.192;5.722;2023-07-22T05:40:03;99236.63;;;21.19;53.03
62548;BME280;48602;45.192;5.722;2023-07-22T05:42:29;99241.75;;;21.22;53.40
62548;BME280;48602;45.192;5.722;2023-07-22T05:44:55;99246.88;;;21.26;53.63
62548;BME280;48602;45.192;5.722;2023-07-22T05:47:21;99245.88;;;21.27;53.35
62548;BME280;48602;45.192;5.722;2023-07-22T05:49:47;99246.59;;;21.29;53.64
62548;BME280;48602;45.192;5.722;2023-07-22T05:52:12;99244.63;;;21.31;53.57
62548;BME280;48602;45.192;5.722;2023-07-22T05:54:37;99249.75;;;21.34;53.34
62548;BME280;48602;45.192;5.722;2023-07-22T05:57:03;99255.00;;;21.35;53.73
62548;BME280;48602;45.192;5.722;2023-07-22T05:59:30;99262.91;;;21.37;53.12
62548;BME280;48602;45.192;5.722;2023-07-22T06:01:56;99265.22;;;21.41;53.58
62548;BME280;48602;45.192;5.722;2023-07-22T06:04:21;99252.66;;;21.42;53.28
62548;BME280;48602;45.192;5.722;2023-07-22T06:06:46;99255.94;;;21.45;53.86
62548;BME280;48602;45.192;5.722;2023-07-22T06:09:12;99258.47;;;21.47;53.63
62548;BME280;48602;45.192;5.722;2023-07-22T06:11:37;99259.34;;;21.47;53.42
62548;BME280;48602;45.192;5.722;2023-07-22T06:14:02;99266.53;;;21.47;53.63
62548;BME280;48602;45.192;5.722;2023-07-22T06:16:28;99269.81;;;21.50;53.74
62548;BME280;48602;45.192;5.722;2023-07-22T06:18:53;99271.53;;;21.51;53.40
62548;BME280;48602;45.192;5.722;2023-07-22T06:21:18;99271.53;;;21.51;53.85
62548;BME280;48602;45.192;5.722;2023-07-22T06:23:44;99268.25;;;21.48;53.45
62548;BME280;48602;45.192;5.722;2023-07-22T06:26:09;99269.22;;;21.47;53.39
62548;BME280;48602;45.192;5.722;2023-07-22T06:28:35;99260.31;;;21.46;53.71
62548;BME280;48602;45.192;5.722;2023-07-22T06:31:00;99261.16;;;21.47;53.42
62548;BME280;48602;45.192;5.722;2023-07-22T06:33:25;99263.72;;;21.48;53.88
62548;BME280;48602;45.192;5.722;2023-07-22T06:35:51;99266.16;;;21.51;53.80
62548;BME280;48602;45.192;5.722;2023-07-22T06:38:16;99263.97;;;21.56;53.43
62548;BME280;48602;45.192;5.722;2023-07-22T06:40:42;99269.66;;;21.63;53.85
62548;BME280;48602;45.192;5.722;2023-07-22T06:43:07;99270.13;;;21.68;53.49
62548;BME280;48602;45.192;5.722;2023-07-22T06:45:33;99276.09;;;21.72;53.81
62548;BME280;48602;45.192;5.722;2023-07-22T06:47:58;99272.06;;;21.77;53.41
62548;BME280;48602;45.192;5.722;2023-07-22T06:50:24;99273.34;;;21.83;53.74
62548;BME280;48602;45.192;5.722;2023-07-22T06:52:49;99265.91;;;21.86;53.05
62548;BME280;48602;45.192;5.722;2023-07-22T06:55:15;99266.25;;;21.93;53.25
62548;BME280;48602;45.192;5.722;2023-07-22T06:57:40;99266.34;;;22.03;53.16
62548;BME280;48602;45.192;5.722;2023-07-22T07:00:06;99264.00;;;22.09;53.10
62548;BME280;48602;45.192;5.722;2023-07-22T07:02:32;99267.00;;;22.16;53.18
62548;BME280;48602;45.192;5.722;2023-07-22T07:04:57;99267.47;;;22.21;52.71
62548;BME280;48602;45.192;5.722;2023-07-22T07:07:23;99266.47;;;22.22;52.69
62548;BME280;48602;45.192;5.722;2023-07-22T07:09:48;99265.63;;;22.21;53.21
62548;BME280;48602;45.192;5.722;2023-07-22T07:12:13;99270.75;;;22.24;52.96
62548;BME280;48602;45.192;5.722;2023-07-22T07:14:39;99271.19;;;22.29;52.46
62548;BME280;48602;45.192;5.722;2023-07-22T07:17:04;99255.41;;;22.36;52.77
62548;BME280;48602;45.192;5.722;2023-07-22T07:19:30;99258.69;;;22.40;52.55
62548;BME280;48602;45.192;5.722;2023-07-22T07:21:55;99257.56;;;22.42;52.89
62548;BME280;48602;45.192;5.722;2023-07-22T07:24:21;99260.00;;;22.45;52.43
62548;BME280;48602;45.192;5.722;2023-07-22T07:26:46;99259.56;;;22.50;52.29
62548;BME280;48602;45.192;5.722;2023-07-22T07:29:12;99258.19;;;22.55;51.98
62548;BME280;48602;45.192;5.722;2023-07-22T07:31:38;99261.34;;;22.60;51.97
62548;BME280;48602;45.192;5.722;2023-07-22T07:34:04;99258.09;;;22.67;51.91
62548;BME280;48602;45.192;5.722;2023-07-22T07:36:29;99257.56;;;22.73;51.74
62548;BME280;48602;45.192;5.722;2023-07-22T07:38:55;99251.53;;;22.80;51.48
62548;BME280;48602;45.192;5.722;2023-07-22T07:41:20;99258.34;;;22.84;51.44
62548;BME280;48602;45.192;5.722;2023-07-22T07:43:46;99248.03;;;22.89;50.92
62548;BME280;48602;45.192;5.722;2023-07-22T07:46:31;99239.28;;;22.97;51.06
62548;BME280;48602;45.192;5.722;2023-07-22T07:48:58;99246.69;;;23.05;51.24
62548;BME280;48602;45.192;5.722;2023-07-22T07:51:26;99247.84;;;23.12;50.70
62548;BME280;48602;45.192;5.722;2023-07-22T07:53:52;99249.09;;;23.17;50.50
62548;BME280;48602;45.192;5.722;2023-07-22T07:56:19;99245.88;;;23.23;50.59
62548;BME280;48602;45.192;5.722;2023-07-22T07:58:45;99246.16;;;23.30;50.50
62548;BME280;48602;45.192;5.722;2023-07-22T08:01:11;99246.31;;;23.38;50.53
62548;BME280;48602;45.192;5.722;2023-07-22T08:03:38;99248.88;;;23.49;49.81
62548;BME280;48602;45.192;5.722;2023-07-22T08:06:05;99254.59;;;23.56;49.65
62548;BME280;48602;45.192;5.722;2023-07-22T08:08:31;99256.03;;;23.60;49.75
62548;BME280;48602;45.192;5.722;2023-07-22T08:11:03;99248.34;;;23.65;49.05
62548;BME280;48602;45.192;5.722;2023-07-22T08:13:29;99250.63;;;23.70;49.26
62548;BME280;48602;45.192;5.722;2023-07-22T08:15:57;99250.66;;;23.79;49.74
62548;BME280;48602;45.192;5.722;2023-07-22T08:18:23;99251.47;;;23.89;49.61
62548;BME280;48602;45.192;5.722;2023-07-22T08:20:49;99250.63;;;23.98;48.09
62548;BME280;48602;45.192;5.722;2023-07-22T08:23:14;99255.72;;;24.01;47.82
62548;BME280;48602;45.192;5.722;2023-07-22T08:25:40;99248.63;;;24.00;47.81
62548;BME280;48602;45.192;5.722;2023-07-22T08:28:05;99247.50;;;24.03;47.95
62548;BME280;48602;45.192;5.722;2023-07-22T08:30:30;99245.66;;;24.04;47.25
62548;BME280;48602;45.192;5.722;2023-07-22T08:32:56;99246.50;;;24.04;47.23
62548;BME280;48602;45.192;5.722;2023-07-22T08:35:22;99248.63;;;24.10;47.30
62548;BME280;48602;45.192;5.722;2023-07-22T08:37:47;99247.50;;;24.13;46.61
62548;BME280;48602;45.192;5.722;2023-07-22T08:40:13;99247.19;;;24.16;46.91
62548;BME280;48602;45.192;5.722;2023-07-22T08:42:39;99247.63;;;24.21;46.77
62548;BME280;48602;45.192;5.722;2023-07-22T08:45:06;99250.06;;;24.24;47.00
62548;BME280;48602;45.192;5.722;2023-07-22T08:47:34;99247.78;;;24.29;46.69
62548;BME280;48602;45.192;5.722;2023-07-22T08:50:06;99250.88;;;24.34;46.13
62548;BME280;48602;45.192;5.722;2023-07-22T08:52:33;99252.84;;;24.42;46.34
62548;BME280;48602;45.192;5.722;2023-07-22T08:54:59;99252.09;;;24.49;46.34
62548;BME280;48602;45.192;5.722;2023-07-22T08:57:27;99250.69;;;24.55;46.26
62548;BME280;48602;45.192;5.722;2023-07-22T08:59:56;99245.84;;;24.58;45.50
62548;BME280;48602;45.192;5.722;2023-07-22T09:02:23;99248.25;;;24.61;45.97
62548;BME280;48602;45.192;5.722;2023-07-22T09:04:50;99256.03;;;24.64;46.06
62548;BME280;48602;45.192;5.722;2023-07-22T09:07:16;99253.59;;;24.71;45.78
62548;BME280;48602;45.192;5.722;2023-07-22T09:09:44;99251.88;;;24.80;45.62
62548;BME280;48602;45.192;5.722;2023-07-22T09:12:11;99244.03;;;24.86;45.79
62548;BME280;48602;45.192;5.722;2023-07-22T09:14:38;99239.19;;;24.90;45.23
62548;BME280;48602;45.192;5.722;2023-07-22T09:17:05;99240.47;;;24.95;45.02
62548;BME280;48602;45.192;5.722;2023-07-22T09:19:31;99231.22;;;24.98;44.22
62548;BME280;48602;45.192;5.722;2023-07-22T09:21:56;99230.06;;;25.00;43.87
62548;BME280;48602;45.192;5.722;2023-07-22T09:24:25;99228.47;;;25.08;43.67
62548;BME280;48602;45.192;5.722;2023-07-22T09:26:51;99231.88;;;25.10;43.36
62548;BME280;48602;45.192;5.722;2023-07-22T09:29:17;99228.19;;;25.11;42.79
62548;BME280;48602;45.192;5.722;2023-07-22T09:31:53;99227.84;;;25.14;42.66
62548;BME280;48602;45.192;5.722;2023-07-22T09:34:19;99228.41;;;25.17;42.78
62548;BME280;48602;45.192;5.722;2023-07-22T09:36:58;99227.13;;;25.21;42.63
62548;BME280;48602;45.192;5.722;2023-07-22T09:39:29;99231.44;;;25.32;42.20
62548;BME280;48602;45.192;5.722;2023-07-22T09:41:54;99225.59;;;25.36;41.63
62548;BME280;48602;45.192;5.722;2023-07-22T09:44:21;99223.13;;;25.43;41.37
62548;BME280;48602;45.192;5.722;2023-07-22T09:46:47;99222.44;;;25.41;41.26
62548;BME280;48602;45.192;5.722;2023-07-22T09:49:16;99227.69;;;25.43;41.14
62548;BME280;48602;45.192;5.722;2023-07-22T09:51:42;99231.94;;;25.45;41.33
62548;BME280;48602;45.192;5.722;2023-07-22T09:54:08;99230.25;;;25.44;41.41
62548;BME280;48602;45.192;5.722;2023-07-22T09:56:47;99224.34;;;25.49;40.80
62548;BME280;48602;45.192;5.722;2023-07-22T09:59:14;99226.91;;;25.50;40.16
62548;BME280;48602;45.192;5.722;2023-07-22T10:01:40;99235.69;;;25.52;40.10
62548;BME280;48602;45.192;5.722;2023-07-22T10:04:06;99229.84;;;25.57;40.82
62548;BME280;48602;45.192;5.722;2023-07-22T10:06:33;99218.59;;;25.61;40.26
62548;BME280;48602;45.192;5.722;2023-07-22T10:09:03;99218.00;;;25.67;40.65
62548;BME280;48602;45.192;5.722;2023-07-22T10:11:33;99215.69;;;25.72;40.36
62548;BME280;48602;45.192;5.722;2023-07-22T10:13:59;99212.97;;;25.72;39.96
62548;BME280;48602;45.192;5.722;2023-07-22T10:16:24;99209.59;;;25.70;39.59
62548;BME280;48602;45.192;5.722;2023-07-22T10:18:51;99208.44;;;25.73;40.03
62548;BME280;48602;45.192;5.722;2023-07-22T10:21:17;99208.66;;;25.80;40.41
62548;BME280;48602;45.192;5.722;2023-07-22T10:23:44;99200.56;;;25.80;39.80
62548;BME280;48602;45.192;5.722;2023-07-22T10:26:10;99203.88;;;25.73;40.33
62548;BME280;48602;45.192;5.722;2023-07-22T10:28:40;99209.28;;;25.73;40.27
62548;BME280;48602;45.192;5.722;2023-07-22T10:31:05;99199.31;;;25.74;40.24
62548;BME280;48602;45.192;5.722;2023-07-22T10:33:31;99202.72;;;25.76;40.60
62548;BME280;48602;45.192;5.722;2023-07-22T10:38:28;99193.34;;;25.88;40.60
62548;BME280;48602;45.192;5.722;2023-07-22T10:40:54;99191.59;;;25.97;40.62
62548;BME280;48602;45.192;5.722;2023-07-22T10:45:51;99187.31;;;26.12;40.48
62548;BME280;48602;45.192;5.722;2023-07-22T10:48:17;99193.28;;;26.24;39.87
62548;BME280;48602;45.192;5.722;2023-07-22T10:50:50;99178.31;;;26.29;39.99
62548;BME280;48602;45.192;5.722;2023-07-22T10:58:54;99166.66;;;26.63;39.34
62548;BME280;48602;45.192;5.722;2023-07-22T11:04:24;99161.50;;;26.86;38.52
62548;BME280;48602;45.192;5.722;2023-07-22T11:06:58;99159.31;;;26.89;38.57
62548;BME280;48602;45.192;5.722;2023-07-22T11:14:34;99159.56;;;26.96;36.74
62548;BME280;48602;45.192;5.722;2023-07-22T11:17:03;99156.28;;;26.92;38.08
62548;BME280;48602;45.192;5.722;2023-07-22T11:19:29;99152.44;;;26.95;38.30
62548;BME280;48602;45.192;5.722;2023-07-22T11:21:55;99153.13;;;27.05;38.33
62548;BME280;48602;45.192;5.722;2023-07-22T11:24:23;99141.31;;;27.14;38.00
62548;BME280;48602;45.192;5.722;2023-07-22T11:26:50;99155.72;;;27.23;37.77
62548;BME280;48602;45.192;5.722;2023-07-22T11:29:16;99140.66;;;27.28;37.62
62548;BME280;48602;45.192;5.722;2023-07-22T11:31:44;99141.69;;;27.35;36.72
62548;BME280;48602;45.192;5.722;2023-07-22T11:34:15;99141.19;;;27.40;36.53
62548;BME280;48602;45.192;5.722;2023-07-22T11:36:42;99139.66;;;27.45;36.30
62548;BME280;48602;45.192;5.722;2023-07-22T11:39:09;99129.31;;;27.49;35.89
62548;BME280;48602;45.192;5.722;2023-07-22T11:41:37;99136.78;;;27.55;35.52
62548;BME280;48602;45.192;5.722;2023-07-22T11:44:04;99132.75;;;27.59;35.58
62548;BME280;48602;45.192;5.722;2023-07-22T11:46:58;99126.00;;;27.63;35.98
62548;BME280;48602;45.192;5.722;2023-07-22T11:49:33;99110.75;;;27.70;35.68
62548;BME280;48602;45.192;5.722;2023-07-22T11:52:09;99113.63;;;27.77;34.74
62548;BME280;48602;45.192;5.722;2023-07-22T11:54:38;99118.88;;;27.78;34.96
62548;BME280;48602;45.192;5.722;2023-07-22T11:59:43;99099.72;;;27.88;35.12
62548;BME280;48602;45.192;5.722;2023-07-22T12:02:12;99104.97;;;27.98;34.46
62548;BME280;48602;45.192;5.722;2023-07-22T12:04:39;99099.00;;;28.02;33.70
62548;BME280;48602;45.192;5.722;2023-07-22T12:07:04;99107.28;;;28.01;33.99
62548;BME280;48602;45.192;5.722;2023-07-22T12:09:30;99100.19;;;28.00;33.85
62548;BME280;48602;45.192;5.722;2023-07-22T12:11:58;99089.53;;;27.98;33.86
62548;BME280;48602;45.192;5.722;2023-07-22T12:14:24;99099.00;;;28.10;33.45
62548;BME280;48602;45.192;5.722;2023-07-22T12:16:55;99101.34;;;28.13;33.80
62548;BME280;48602;45.192;5.722;2023-07-22T12:19:22;99087.13;;;28.11;32.58
62548;BME280;48602;45.192;5.722;2023-07-22T12:21:47;99094.94;;;28.06;32.70
62548;BME280;48602;45.192;5.722;2023-07-22T12:24:14;99082.38;;;28.05;33.29
62548;BME280;48602;45.192;5.722;2023-07-22T12:26:39;99099.66;;;28.04;32.30
62548;BME280;48602;45.192;5.722;2023-07-22T12:29:05;99077.31;;;28.02;32.90
62548;BME280;48602;45.192;5.722;2023-07-22T12:31:30;99087.47;;;28.00;32.40
62548;BME280;48602;45.192;5.722;2023-07-22T12:33:56;99082.06;;;28.00;33.21
62548;BME280;48602;45.192;5.722;2023-07-22T12:36:21;99081.72;;;28.03;32.67
62548;BME280;48602;45.192;5.722;2023-07-22T12:38:46;99082.72;;;28.02;33.15
62548;BME280;48602;45.192;5.722;2023-07-22T12:41:12;99081.72;;;28.03;32.08
62548;BME280;48602;45.192;5.722;2023-07-22T12:43:37;99072.06;;;28.09;32.37
62548;BME280;48602;45.192;5.722;2023-07-22T12:46:04;99084.25;;;28.13;33.13
62548;BME280;48602;45.192;5.722;2023-07-22T12:48:29;99083.69;;;28.18;32.20
62548;BME280;48602;45.192;5.722;2023-07-22T12:50:55;99069.84;;;28.21;32.08
62548;BME280;48602;45.192;5.722;2023-07-22T12:53:20;99060.34;;;28.25;31.48
62548;BME280;48602;45.192;5.722;2023-07-22T12:55:46;99058.97;;;28.29;32.61
62548;BME280;48602;45.192;5.722;2023-07-22T12:58:11;99057.56;;;28.33;32.57
62548;BME280;48602;45.192;5.722;2023-07-22T13:00:36;99050.59;;;28.38;32.13
62548;BME280;48602;45.192;5.722;2023-07-22T13:03:02;99050.75;;;28.45;32.28
62548;BME280;48602;45.192;5.722;2023-07-22T13:05:27;99063.78;;;28.49;31.88
62548;BME280;48602;45.192;5.722;2023-07-22T13:07:52;99056.13;;;28.53;31.26
62548;BME280;48602;45.192;5.722;2023-07-22T13:10:18;99048.16;;;28.52;31.28
62548;BME280;48602;45.192;5.722;2023-07-22T13:12:45;99051.03;;;28.58;31.62
62548;BME280;48602;45.192;5.722;2023-07-22T13:15:11;99055.38;;;28.67;30.81
62548;BME280;48602;45.192;5.722;2023-07-22T13:17:36;99052.97;;;28.72;30.88